createdAt,value
2022-10-23T05:43:48.897Z,100.00
2022-10-23T05:47:04.610Z,100.00
2022-10-23T05:49:50.915Z,100.00
2022-10-23T05:52:34.040Z,100.00
2022-10-23T05:55:25.865Z,100.00
2022-10-23T05:58:17.941Z,100.00
2022-10-23T06:01:08.126Z,100.00
2022-10-23T06:03:56.348Z,100.00
2022-10-23T06:06:31.401Z,100.00
2022-10-23T06:08:59.441Z,100.00
2022-10-23T06:11:27.551Z,100.00
2022-10-23T06:14:03.381Z,100.00
2022-10-23T06:16:31.414Z,100.00
2022-10-23T06:19:00.284Z,100.00
2022-10-23T06:21:28.128Z,100.00
2022-10-23T06:23:56.699Z,100.00
2022-10-23T06:26:53.835Z,100.00
2022-10-23T06:29:27.245Z,100.00
2022-10-23T06:31:54.968Z,100.00
2022-10-23T06:34:23.645Z,100.00
2022-10-23T06:37:09.948Z,100.00
2022-10-23T06:39:46.376Z,100.00
2022-10-23T06:42:35.565Z,100.00
2022-10-23T06:45:34.099Z,100.00
2022-10-23T06:48:25.006Z,100.00
2022-10-23T06:51:03.844Z,100.00
2022-10-23T06:53:38.098Z,100.00
2022-10-23T06:56:13.034Z,100.00
2022-10-23T06:58:40.905Z,100.00
2022-10-23T07:01:14.590Z,100.00
2022-10-23T07:04:02.675Z,100.00
2022-10-23T07:06:31.231Z,100.00
2022-10-23T07:08:59.912Z,100.00
2022-10-23T07:11:46.412Z,100.00
2022-10-23T07:14:14.519Z,100.00
2022-10-23T07:17:00.922Z,100.00
2022-10-23T07:19:29.681Z,100.00
2022-10-23T07:21:58.928Z,100.00
2022-10-23T07:24:48.465Z,100.00
2022-10-23T07:27:29.251Z,100.00
2022-10-23T07:30:00.378Z,100.00
2022-10-23T07:32:31.975Z,100.00
2022-10-23T07:35:18.711Z,100.00
2022-10-23T07:38:13.978Z,100.00
2022-10-23T07:40:45.708Z,100.00
2022-10-23T07:43:18.577Z,100.00
2022-10-23T07:48:38.939Z,100.00
2022-10-23T07:51:25.311Z,100.00
2022-10-23T07:54:18.623Z,100.00
2022-10-23T07:57:30.552Z,100.00
2022-10-23T08:00:32.419Z,100.00
2022-10-23T08:03:12.875Z,99.38
2022-10-23T08:06:00.174Z,100.00
2022-10-23T08:08:47.335Z,100.00
2022-10-23T08:11:15.538Z,100.00
2022-10-23T08:14:09.187Z,100.00
2022-10-23T08:16:37.971Z,100.00
2022-10-23T08:19:06.505Z,95.30
2022-10-23T08:21:36.316Z,98.79
2022-10-23T08:24:05.037Z,93.19
2022-10-23T08:26:32.715Z,90.04
2022-10-23T08:29:00.422Z,94.05
2022-10-23T08:31:28.856Z,87.59
2022-10-23T08:34:18.727Z,87.29
2022-10-23T08:37:07.843Z,93.35
2022-10-23T08:39:56.173Z,97.26
2022-10-23T08:43:03.588Z,99.10
2022-10-23T08:45:45.075Z,97.79
2022-10-23T08:48:35.687Z,97.22
2022-10-23T08:51:44.565Z,100.00
2022-10-23T08:54:45.076Z,100.00
2022-10-23T08:57:40.072Z,100.00
2022-10-23T09:00:15.406Z,100.00
2022-10-23T09:03:03.241Z,90.20
2022-10-23T09:05:50.401Z,79.95
2022-10-23T09:08:36.131Z,91.68
2022-10-23T09:11:14.665Z,88.28
2022-10-23T09:14:14.736Z,81.93
2022-10-23T09:16:51.649Z,84.99
2022-10-23T09:19:20.848Z,85.94
2022-10-23T09:21:52.042Z,82.50
2022-10-23T09:24:21.997Z,69.91
2022-10-23T09:26:51.182Z,58.50
2022-10-23T09:29:32.006Z,57.77
2022-10-23T09:32:00.759Z,54.67
2022-10-23T09:34:29.792Z,55.09
2022-10-23T09:36:59.434Z,56.13
2022-10-23T09:42:25.030Z,55.63
2022-10-23T09:44:53.851Z,57.25
2022-10-23T09:47:24.478Z,61.37
2022-10-23T09:49:54.099Z,66.19
2022-10-23T09:52:26.146Z,66.28
2022-10-23T09:55:00.970Z,70.11
2022-10-23T09:57:31.902Z,72.76
2022-10-23T10:00:05.172Z,73.09
2022-10-23T10:02:39.282Z,72.25
2022-10-23T10:05:32.317Z,77.38
2022-10-23T10:08:34.841Z,80.10
2022-10-23T10:11:21.084Z,77.98
2022-10-23T10:14:23.204Z,80.32
2022-10-23T10:17:25.855Z,77.20
2022-10-23T10:20:05.458Z,71.55
2022-10-23T10:25:40.194Z,72.89
2022-10-23T10:28:32.433Z,71.39
2022-10-23T10:31:12.842Z,70.79
2022-10-23T10:34:16.404Z,73.84
2022-10-23T10:36:55.039Z,72.81
2022-10-23T10:39:28.877Z,76.50
2022-10-23T10:42:32.171Z,76.73
2022-10-23T10:45:46.505Z,80.03
2022-10-23T10:48:51.790Z,78.87
2022-10-23T10:51:54.702Z,75.14
2022-10-23T10:54:35.991Z,74.12
2022-10-23T10:57:05.716Z,75.96
2022-10-23T10:59:52.011Z,76.13
2022-10-23T11:02:41.687Z,80.83
2022-10-23T11:05:19.133Z,78.46
2022-10-23T11:08:00.071Z,78.00
2022-10-23T11:10:27.775Z,72.85
2022-10-23T11:12:55.472Z,70.12
2022-10-23T11:15:27.164Z,74.31
2022-10-23T11:18:02.983Z,71.04
2022-10-23T11:20:51.002Z,79.78
2022-10-23T11:23:54.190Z,84.28
2022-10-23T11:26:28.538Z,81.09
2022-10-23T11:29:20.437Z,86.67
2022-10-23T11:31:57.400Z,85.67
2022-10-23T11:34:50.997Z,85.98
2022-10-23T11:37:19.087Z,84.92
2022-10-23T11:40:02.181Z,87.74
2022-10-23T11:42:35.003Z,90.83
2022-10-23T11:45:05.099Z,87.62
2022-10-23T11:47:40.126Z,91.59
2022-10-23T11:50:08.177Z,85.30
2022-10-23T11:53:19.425Z,83.09
2022-10-23T11:56:12.055Z,81.55
2022-10-23T11:58:44.594Z,85.46
2022-10-23T12:01:41.476Z,87.84
2022-10-23T12:04:15.666Z,89.48
2022-10-23T12:07:00.264Z,86.76
2022-10-23T12:09:36.288Z,93.92
2022-10-23T12:12:10.196Z,100.00
2022-10-23T12:14:46.146Z,96.24
2022-10-23T12:17:35.966Z,98.69
2022-10-23T12:20:03.548Z,100.00
2022-10-23T12:22:51.972Z,100.00
2022-10-23T12:25:57.513Z,100.00
2022-10-23T12:28:39.131Z,100.00
2022-10-23T12:31:36.209Z,100.00
2022-10-23T12:34:33.118Z,100.00
2022-10-23T12:37:06.499Z,100.00
2022-10-23T12:39:41.900Z,100.00
2022-10-23T12:42:28.333Z,100.00
2022-10-23T12:45:02.774Z,100.00
2022-10-23T12:47:30.637Z,100.00
2022-10-23T12:49:58.274Z,100.00
2022-10-23T12:52:26.147Z,100.00
2022-10-23T12:54:53.794Z,100.00
2022-10-23T12:57:28.994Z,100.00
2022-10-23T13:00:02.607Z,100.00
2022-10-23T13:02:32.039Z,100.00
2022-10-23T13:05:01.403Z,100.00
2022-10-23T13:07:34.437Z,100.00
2022-10-23T13:10:03.692Z,100.00
2022-10-23T13:12:35.685Z,100.00
2022-10-23T13:15:06.444Z,100.00
2022-10-23T13:18:03.538Z,100.00
2022-10-23T13:20:50.414Z,100.00
2022-10-23T13:23:19.449Z,100.00
2022-10-23T13:26:02.444Z,100.00
2022-10-23T13:28:52.395Z,100.00
2022-10-23T13:31:38.421Z,100.00
2022-10-23T13:34:13.189Z,100.00
2022-10-23T13:36:53.229Z,100.00
2022-10-23T13:39:28.202Z,100.00
2022-10-23T13:41:55.924Z,100.00
2022-10-23T13:44:24.042Z,100.00
2022-10-23T13:46:52.344Z,100.00
2022-10-23T13:49:20.180Z,100.00
2022-10-23T13:51:54.531Z,100.00
2022-10-23T13:54:24.061Z,100.00
2022-10-23T13:56:52.190Z,100.00
2022-10-23T13:59:20.069Z,100.00
2022-10-23T14:01:48.410Z,100.00
2022-10-23T14:04:16.897Z,100.00
2022-10-23T14:06:44.631Z,100.00
2022-10-23T14:09:31.686Z,100.00
2022-10-23T14:14:44.386Z,100.00
2022-10-23T14:17:12.021Z,100.00
2022-10-23T14:19:39.723Z,100.00
2022-10-23T14:22:07.306Z,100.00
2022-10-23T14:24:35.633Z,100.00
2022-10-23T14:27:03.254Z,100.00
2022-10-23T14:29:31.076Z,100.00
2022-10-23T14:31:58.664Z,100.00
2022-10-23T14:34:26.381Z,100.00
2022-10-23T14:37:07.496Z,100.00
2022-10-23T14:39:36.341Z,100.00
2022-10-23T14:42:04.022Z,100.00
2022-10-23T14:44:31.747Z,100.00
2022-10-23T14:47:00.193Z,100.00
2022-10-23T14:49:27.844Z,100.00
2022-10-23T14:51:55.423Z,100.00
2022-10-23T14:54:41.627Z,100.00
2022-10-23T14:57:28.133Z,100.00
2022-10-23T15:00:14.746Z,100.00
2022-10-23T15:02:42.595Z,100.00
2022-10-23T15:05:10.416Z,100.00
2022-10-23T15:07:38.193Z,100.00
2022-10-23T15:10:06.826Z,100.00
2022-10-23T15:12:37.589Z,100.00
2022-10-23T15:15:06.081Z,100.00
2022-10-23T15:17:52.370Z,100.00
2022-10-23T15:20:20.205Z,100.00
2022-10-23T15:22:47.787Z,100.00
2022-10-23T15:25:17.969Z,100.00
2022-10-23T15:27:46.047Z,100.00
2022-10-23T15:30:13.957Z,100.00
2022-10-23T15:32:41.672Z,100.00
2022-10-23T15:35:09.349Z,100.00
2022-10-23T15:37:55.506Z,100.00
2022-10-23T15:40:23.211Z,100.00
2022-10-23T15:42:50.875Z,100.00
2022-10-23T15:45:18.485Z,100.00
2022-10-23T15:47:46.245Z,100.00
2022-10-23T15:50:14.077Z,100.00
2022-10-23T15:53:00.465Z,100.00
2022-10-23T15:55:28.334Z,100.00
2022-10-23T15:57:57.345Z,100.00
2022-10-23T16:00:44.026Z,100.00
2022-10-23T16:03:11.740Z,100.00
2022-10-23T16:05:39.477Z,100.00
2022-10-23T16:08:07.208Z,100.00
2022-10-23T16:10:39.475Z,100.00
2022-10-23T16:13:07.156Z,100.00
2022-10-23T16:15:39.359Z,100.00
2022-10-23T16:18:10.556Z,100.00
2022-10-23T16:20:40.186Z,100.00
2022-10-23T16:23:07.746Z,100.00
2022-10-23T16:25:36.524Z,100.00
2022-10-23T16:28:04.364Z,100.00
2022-10-23T16:31:10.376Z,100.00
2022-10-23T16:34:00.000Z,100.00
2022-10-23T16:36:28.266Z,100.00
2022-10-23T16:39:20.396Z,100.00
2022-10-23T16:42:07.109Z,100.00
2022-10-23T16:44:53.503Z,100.00
2022-10-23T16:47:39.952Z,100.00
2022-10-23T16:50:07.854Z,100.00
2022-10-23T16:52:35.477Z,100.00
2022-10-23T16:55:03.232Z,100.00
2022-10-23T16:57:30.902Z,100.00
2022-10-23T16:59:58.648Z,100.00
2022-10-23T17:02:26.695Z,100.00
2022-10-23T17:04:54.457Z,100.00
2022-10-23T17:07:24.182Z,100.00
2022-10-23T17:09:52.186Z,100.00
2022-10-23T17:12:20.072Z,100.00
2022-10-23T17:14:47.744Z,100.00
2022-10-23T17:17:15.504Z,100.00
